sensor_id;sensor_type;location;lat;lon;timestamp;P1;durP1;ratioP1;P2;durP2;ratioP2
49998;SDS011;68071;45.062;7.356;2023-03-12T00:01:08;0.38;;;0.20;;
49998;SDS011;68071;45.062;7.356;2023-03-12T00:04:13;0.20;;;0.20;;
49998;SDS011;68071;45.062;7.356;2023-03-12T00:07:16;1.55;;;0.20;;
49998;SDS011;68071;45.062;7.356;2023-03-12T00:10:20;0.10;;;0.10;;
49998;SDS011;68071;45.062;7.356;2023-03-12T00:13:24;0.20;;;0.10;;
49998;SDS011;68071;45.062;7.356;2023-03-12T00:16:28;0.22;;;0.10;;
49998;SDS011;68071;45.062;7.356;2023-03-12T00:19:33;0.03;;;0.03;;
49998;SDS011;68071;45.062;7.356;2023-03-12T00:22:37;0.20;;;0.10;;
49998;SDS011;68071;45.062;7.356;2023-03-12T00:25:41;0.43;;;0.13;;
49998;SDS011;68071;45.062;7.356;2023-03-12T00:28:46;0.30;;;0.20;;
49998;SDS011;68071;45.062;7.356;2023-03-12T00:31:50;0.85;;;0.10;;
49998;SDS011;68071;45.062;7.356;2023-03-12T00:34:54;0.10;;;0.10;;
49998;SDS011;68071;45.062;7.356;2023-03-12T00:37:58;0.55;;;0.10;;
49998;SDS011;68071;45.062;7.356;2023-03-12T00:41:02;0.10;;;0.10;;
49998;SDS011;68071;45.062;7.356;2023-03-12T00:44:06;0.10;;;0.10;;
49998;SDS011;68071;45.062;7.356;2023-03-12T00:47:10;0.10;;;0.10;;
49998;SDS011;68071;45.062;7.356;2023-03-12T00:50:15;0.10;;;0.10;;
49998;SDS011;68071;45.062;7.356;2023-03-12T00:53:19;0.05;;;0.05;;
49998;SDS011;68071;45.062;7.356;2023-03-12T00:56:23;0.28;;;0.10;;
49998;SDS011;68071;45.062;7.356;2023-03-12T00:59:27;0.38;;;0.13;;
49998;SDS011;68071;45.062;7.356;2023-03-12T01:02:31;0.10;;;0.10;;
49998;SDS011;68071;45.062;7.356;2023-03-12T01:05:35;0.20;;;0.10;;
49998;SDS011;68071;45.062;7.356;2023-03-12T01:08:40;0.10;;;0.10;;
49998;SDS011;68071;45.062;7.356;2023-03-12T01:11:45;0.10;;;0.10;;
49998;SDS011;68071;45.062;7.356;2023-03-12T01:14:48;0.13;;;0.10;;
49998;SDS011;68071;45.062;7.356;2023-03-12T01:17:52;0.10;;;0.10;;
49998;SDS011;68071;45.062;7.356;2023-03-12T01:20:56;0.20;;;0.20;;
49998;SDS011;68071;45.062;7.356;2023-03-12T01:24:01;0.20;;;0.15;;
49998;SDS011;68071;45.062;7.356;2023-03-12T01:27:06;0.10;;;0.10;;
49998;SDS011;68071;45.062;7.356;2023-03-12T01:30:10;0.20;;;0.20;;
49998;SDS011;68071;45.062;7.356;2023-03-12T01:33:14;0.30;;;0.20;;
49998;SDS011;68071;45.062;7.356;2023-03-12T01:39:23;0.55;;;0.10;;
49998;SDS011;68071;45.062;7.356;2023-03-12T01:42:28;0.10;;;0.10;;
49998;SDS011;68071;45.062;7.356;2023-03-12T01:49:00;0.10;;;0.10;;
49998;SDS011;68071;45.062;7.356;2023-03-12T01:52:12;0.00;;;0.00;;
49998;SDS011;68071;45.062;7.356;2023-03-12T01:55:26;0.10;;;0.10;;
49998;SDS011;68071;45.062;7.356;2023-03-12T01:58:30;0.10;;;0.10;;
49998;SDS011;68071;45.062;7.356;2023-03-12T02:01:37;0.10;;;0.10;;
49998;SDS011;68071;45.062;7.356;2023-03-12T02:04:43;0.10;;;0.10;;
49998;SDS011;68071;45.062;7.356;2023-03-12T02:07:51;0.10;;;0.10;;
49998;SDS011;68071;45.062;7.356;2023-03-12T02:10:55;0.10;;;0.10;;
49998;SDS011;68071;45.062;7.356;2023-03-12T02:13:59;0.10;;;0.10;;
49998;SDS011;68071;45.062;7.356;2023-03-12T02:17:04;0.13;;;0.10;;
49998;SDS011;68071;45.062;7.356;2023-03-12T02:20:11;0.10;;;0.10;;
49998;SDS011;68071;45.062;7.356;2023-03-12T02:23:33;0.10;;;0.10;;
49998;SDS011;68071;45.062;7.356;2023-03-12T02:26:45;0.20;;;0.20;;
49998;SDS011;68071;45.062;7.356;2023-03-12T02:29:50;0.10;;;0.10;;
49998;SDS011;68071;45.062;7.356;2023-03-12T02:32:55;0.70;;;0.10;;
49998;SDS011;68071;45.062;7.356;2023-03-12T02:36:00;0.10;;;0.10;;
49998;SDS011;68071;45.062;7.356;2023-03-12T02:39:05;0.10;;;0.10;;
49998;SDS011;68071;45.062;7.356;2023-03-12T02:42:09;0.13;;;0.13;;
49998;SDS011;68071;45.062;7.356;2023-03-12T02:45:13;0.13;;;0.10;;
49998;SDS011;68071;45.062;7.356;2023-03-12T02:48:17;0.30;;;0.13;;
49998;SDS011;68071;45.062;7.356;2023-03-12T02:51:20;0.13;;;0.13;;
49998;SDS011;68071;45.062;7.356;2023-03-12T02:54:25;0.10;;;0.10;;
49998;SDS011;68071;45.062;7.356;2023-03-12T02:57:29;0.10;;;0.10;;
49998;SDS011;68071;45.062;7.356;2023-03-12T03:00:33;0.73;;;0.20;;
49998;SDS011;68071;45.062;7.356;2023-03-12T03:03:38;0.10;;;0.10;;
49998;SDS011;68071;45.062;7.356;2023-03-12T03:06:42;0.10;;;0.10;;
49998;SDS011;68071;45.062;7.356;2023-03-12T03:09:47;0.52;;;0.28;;
49998;SDS011;68071;45.062;7.356;2023-03-12T03:12:51;0.13;;;0.10;;
49998;SDS011;68071;45.062;7.356;2023-03-12T03:15:54;0.10;;;0.10;;
49998;SDS011;68071;45.062;7.356;2023-03-12T03:19:00;1.00;;;0.20;;
49998;SDS011;68071;45.062;7.356;2023-03-12T03:22:04;0.10;;;0.10;;
49998;SDS011;68071;45.062;7.356;2023-03-12T03:25:09;0.00;;;0.00;;
49998;SDS011;68071;45.062;7.356;2023-03-12T03:28:13;0.22;;;0.10;;
49998;SDS011;68071;45.062;7.356;2023-03-12T03:31:17;0.15;;;0.10;;
49998;SDS011;68071;45.062;7.356;2023-03-12T03:34:23;0.10;;;0.10;;
49998;SDS011;68071;45.062;7.356;2023-03-12T03:37:27;0.25;;;0.17;;
49998;SDS011;68071;45.062;7.356;2023-03-12T03:40:32;0.10;;;0.10;;
49998;SDS011;68071;45.062;7.356;2023-03-12T03:43:36;0.17;;;0.10;;
49998;SDS011;68071;45.062;7.356;2023-03-12T03:46:41;0.38;;;0.20;;
49998;SDS011;68071;45.062;7.356;2023-03-12T03:49:47;0.10;;;0.10;;
49998;SDS011;68071;45.062;7.356;2023-03-12T03:52:51;0.73;;;0.20;;
49998;SDS011;68071;45.062;7.356;2023-03-12T03:55:55;0.10;;;0.10;;
49998;SDS011;68071;45.062;7.356;2023-03-12T03:59:00;0.15;;;0.10;;
49998;SDS011;68071;45.062;7.356;2023-03-12T04:02:06;0.20;;;0.20;;
49998;SDS011;68071;45.062;7.356;2023-03-12T04:05:14;0.10;;;0.10;;
49998;SDS011;68071;45.062;7.356;2023-03-12T04:08:24;0.10;;;0.10;;
49998;SDS011;68071;45.062;7.356;2023-03-12T04:11:29;0.10;;;0.10;;
49998;SDS011;68071;45.062;7.356;2023-03-12T04:14:37;0.28;;;0.20;;
49998;SDS011;68071;45.062;7.356;2023-03-12T04:17:43;4.72;;;3.17;;
49998;SDS011;68071;45.062;7.356;2023-03-12T04:20:47;19.30;;;13.70;;
49998;SDS011;68071;45.062;7.356;2023-03-12T04:23:51;20.38;;;14.75;;
49998;SDS011;68071;45.062;7.356;2023-03-12T04:26:59;19.17;;;15.18;;
49998;SDS011;68071;45.062;7.356;2023-03-12T04:30:03;22.35;;;16.55;;
49998;SDS011;68071;45.062;7.356;2023-03-12T04:33:10;28.00;;;19.55;;
49998;SDS011;68071;45.062;7.356;2023-03-12T04:36:14;28.67;;;19.77;;
49998;SDS011;68071;45.062;7.356;2023-03-12T04:39:21;31.45;;;21.48;;
49998;SDS011;68071;45.062;7.356;2023-03-12T04:42:28;32.17;;;23.40;;
49998;SDS011;68071;45.062;7.356;2023-03-12T04:45:32;31.20;;;23.23;;
49998;SDS011;68071;45.062;7.356;2023-03-12T04:48:36;40.67;;;27.40;;
49998;SDS011;68071;45.062;7.356;2023-03-12T04:51:41;39.95;;;27.77;;
49998;SDS011;68071;45.062;7.356;2023-03-12T04:54:46;44.05;;;29.63;;
49998;SDS011;68071;45.062;7.356;2023-03-12T04:57:50;47.35;;;32.78;;
49998;SDS011;68071;45.062;7.356;2023-03-12T05:00:54;53.92;;;37.05;;
49998;SDS011;68071;45.062;7.356;2023-03-12T05:03:58;51.58;;;36.35;;
49998;SDS011;68071;45.062;7.356;2023-03-12T05:07:03;55.85;;;39.92;;
49998;SDS011;68071;45.062;7.356;2023-03-12T05:10:07;45.17;;;34.30;;
49998;SDS011;68071;45.062;7.356;2023-03-12T05:13:12;44.85;;;34.35;;
49998;SDS011;68071;45.062;7.356;2023-03-12T05:16:24;49.55;;;36.28;;
49998;SDS011;68071;45.062;7.356;2023-03-12T05:19:28;62.88;;;43.42;;
49998;SDS011;68071;45.062;7.356;2023-03-12T05:22:32;61.83;;;45.55;;
49998;SDS011;68071;45.062;7.356;2023-03-12T05:25:37;59.47;;;40.95;;
49998;SDS011;68071;45.062;7.356;2023-03-12T05:28:43;46.95;;;33.80;;
49998;SDS011;68071;45.062;7.356;2023-03-12T05:31:47;51.30;;;38.17;;
49998;SDS011;68071;45.062;7.356;2023-03-12T05:34:52;49.05;;;34.80;;
49998;SDS011;68071;45.062;7.356;2023-03-12T05:37:57;44.00;;;33.25;;
49998;SDS011;68071;45.062;7.356;2023-03-12T05:41:01;45.85;;;34.13;;
49998;SDS011;68071;45.062;7.356;2023-03-12T05:44:09;43.13;;;32.25;;
49998;SDS011;68071;45.062;7.356;2023-03-12T05:47:16;46.05;;;34.55;;
49998;SDS011;68071;45.062;7.356;2023-03-12T05:50:20;48.33;;;34.67;;
49998;SDS011;68071;45.062;7.356;2023-03-12T05:53:24;45.38;;;34.05;;
49998;SDS011;68071;45.062;7.356;2023-03-12T05:56:30;49.88;;;37.45;;
49998;SDS011;68071;45.062;7.356;2023-03-12T05:59:34;51.90;;;37.55;;
49998;SDS011;68071;45.062;7.356;2023-03-12T06:02:39;60.20;;;44.20;;
49998;SDS011;68071;45.062;7.356;2023-03-12T06:05:43;52.03;;;37.92;;
49998;SDS011;68071;45.062;7.356;2023-03-12T06:08:48;56.10;;;39.55;;
49998;SDS011;68071;45.062;7.356;2023-03-12T06:11:53;60.22;;;42.33;;
49998;SDS011;68071;45.062;7.356;2023-03-12T06:14:57;40.47;;;32.65;;
49998;SDS011;68071;45.062;7.356;2023-03-12T06:18:01;52.70;;;37.38;;
49998;SDS011;68071;45.062;7.356;2023-03-12T06:21:09;52.40;;;37.65;;
49998;SDS011;68071;45.062;7.356;2023-03-12T06:24:16;54.08;;;37.40;;
49998;SDS011;68071;45.062;7.356;2023-03-12T06:27:24;44.42;;;30.75;;
49998;SDS011;68071;45.062;7.356;2023-03-12T06:30:28;40.25;;;28.98;;
49998;SDS011;68071;45.062;7.356;2023-03-12T06:33:32;40.60;;;29.27;;
49998;SDS011;68071;45.062;7.356;2023-03-12T06:36:36;33.67;;;26.25;;
49998;SDS011;68071;45.062;7.356;2023-03-12T06:39:41;35.38;;;24.17;;
49998;SDS011;68071;45.062;7.356;2023-03-12T06:42:45;34.78;;;24.08;;
49998;SDS011;68071;45.062;7.356;2023-03-12T06:45:49;31.30;;;22.67;;
49998;SDS011;68071;45.062;7.356;2023-03-12T06:48:53;30.13;;;21.55;;
49998;SDS011;68071;45.062;7.356;2023-03-12T06:51:57;29.55;;;22.85;;
49998;SDS011;68071;45.062;7.356;2023-03-12T06:55:00;34.60;;;23.77;;
49998;SDS011;68071;45.062;7.356;2023-03-12T06:58:04;35.42;;;23.33;;
49998;SDS011;68071;45.062;7.356;2023-03-12T07:01:09;28.98;;;20.08;;
49998;SDS011;68071;45.062;7.356;2023-03-12T07:04:13;25.83;;;17.90;;
49998;SDS011;68071;45.062;7.356;2023-03-12T07:07:17;26.17;;;18.10;;
49998;SDS011;68071;45.062;7.356;2023-03-12T07:10:22;23.87;;;16.53;;
49998;SDS011;68071;45.062;7.356;2023-03-12T07:13:26;23.90;;;16.55;;
49998;SDS011;68071;45.062;7.356;2023-03-12T07:16:30;22.73;;;15.10;;
49998;SDS011;68071;45.062;7.356;2023-03-12T07:19:34;21.60;;;15.13;;
49998;SDS011;68071;45.062;7.356;2023-03-12T07:22:38;17.90;;;12.90;;
49998;SDS011;68071;45.062;7.356;2023-03-12T07:25:42;18.75;;;13.73;;
49998;SDS011;68071;45.062;7.356;2023-03-12T07:28:47;18.17;;;12.53;;
49998;SDS011;68071;45.062;7.356;2023-03-12T07:31:50;17.02;;;12.23;;
49998;SDS011;68071;45.062;7.356;2023-03-12T07:34:54;15.63;;;12.00;;
49998;SDS011;68071;45.062;7.356;2023-03-12T07:38:00;20.10;;;11.93;;
49998;SDS011;68071;45.062;7.356;2023-03-12T07:41:04;18.75;;;11.65;;
49998;SDS011;68071;45.062;7.356;2023-03-12T07:44:08;17.90;;;11.45;;
49998;SDS011;68071;45.062;7.356;2023-03-12T07:47:12;17.70;;;11.93;;
49998;SDS011;68071;45.062;7.356;2023-03-12T07:50:17;15.88;;;11.32;;
49998;SDS011;68071;45.062;7.356;2023-03-12T07:53:21;17.30;;;11.07;;
49998;SDS011;68071;45.062;7.356;2023-03-12T07:56:26;21.08;;;11.32;;
49998;SDS011;68071;45.062;7.356;2023-03-12T07:59:30;13.98;;;9.98;;
49998;SDS011;68071;45.062;7.356;2023-03-12T08:02:35;16.52;;;10.27;;
49998;SDS011;68071;45.062;7.356;2023-03-12T08:05:39;14.85;;;10.65;;
49998;SDS011;68071;45.062;7.356;2023-03-12T08:08:43;15.10;;;10.27;;
49998;SDS011;68071;45.062;7.356;2023-03-12T08:11:47;16.13;;;9.95;;
49998;SDS011;68071;45.062;7.356;2023-03-12T08:14:51;16.40;;;11.27;;
49998;SDS011;68071;45.062;7.356;2023-03-12T08:17:55;16.23;;;11.50;;
49998;SDS011;68071;45.062;7.356;2023-03-12T08:20:59;15.52;;;9.93;;
49998;SDS011;68071;45.062;7.356;2023-03-12T08:24:03;16.05;;;10.05;;
49998;SDS011;68071;45.062;7.356;2023-03-12T08:27:07;15.60;;;8.88;;
49998;SDS011;68071;45.062;7.356;2023-03-12T08:30:11;13.02;;;8.93;;
49998;SDS011;68071;45.062;7.356;2023-03-12T08:33:16;13.90;;;9.23;;
49998;SDS011;68071;45.062;7.356;2023-03-12T08:36:20;12.20;;;8.65;;
49998;SDS011;68071;45.062;7.356;2023-03-12T08:39:24;13.20;;;9.38;;
49998;SDS011;68071;45.062;7.356;2023-03-12T08:42:28;16.40;;;9.32;;
49998;SDS011;68071;45.062;7.356;2023-03-12T08:45:33;15.80;;;9.30;;
49998;SDS011;68071;45.062;7.356;2023-03-12T08:48:38;13.68;;;8.75;;
49998;SDS011;68071;45.062;7.356;2023-03-12T08:51:43;14.38;;;9.23;;
49998;SDS011;68071;45.062;7.356;2023-03-12T08:54:48;15.43;;;9.35;;
49998;SDS011;68071;45.062;7.356;2023-03-12T08:57:52;15.25;;;9.25;;
49998;SDS011;68071;45.062;7.356;2023-03-12T09:00:56;14.68;;;10.48;;
49998;SDS011;68071;45.062;7.356;2023-03-12T09:04:01;15.02;;;9.90;;
49998;SDS011;68071;45.062;7.356;2023-03-12T09:07:06;12.65;;;9.38;;
49998;SDS011;68071;45.062;7.356;2023-03-12T09:13:16;13.75;;;9.23;;
49998;SDS011;68071;45.062;7.356;2023-03-12T09:16:21;15.48;;;9.30;;
49998;SDS011;68071;45.062;7.356;2023-03-12T09:19:25;14.30;;;9.45;;
49998;SDS011;68071;45.062;7.356;2023-03-12T09:22:29;11.80;;;8.18;;
49998;SDS011;68071;45.062;7.356;2023-03-12T09:25:33;15.23;;;8.63;;
49998;SDS011;68071;45.062;7.356;2023-03-12T09:28:37;15.48;;;9.88;;
49998;SDS011;68071;45.062;7.356;2023-03-12T09:31:41;11.90;;;8.18;;
49998;SDS011;68071;45.062;7.356;2023-03-12T09:34:45;12.25;;;8.40;;
49998;SDS011;68071;45.062;7.356;2023-03-12T09:37:49;16.48;;;9.43;;
49998;SDS011;68071;45.062;7.356;2023-03-12T09:40:54;10.55;;;8.38;;
49998;SDS011;68071;45.062;7.356;2023-03-12T09:44:19;14.13;;;8.60;;
49998;SDS011;68071;45.062;7.356;2023-03-12T09:47:36;13.73;;;8.70;;
49998;SDS011;68071;45.062;7.356;2023-03-12T09:54:38;13.27;;;8.40;;
49998;SDS011;68071;45.062;7.356;2023-03-12T09:57:48;13.18;;;8.40;;
49998;SDS011;68071;45.062;7.356;2023-03-12T10:00:56;13.35;;;8.43;;
49998;SDS011;68071;45.062;7.356;2023-03-12T10:28:34;12.98;;;8.60;;
49998;SDS011;68071;45.062;7.356;2023-03-12T10:31:51;12.30;;;8.82;;
49998;SDS011;68071;45.062;7.356;2023-03-12T10:35:21;11.63;;;8.88;;
49998;SDS011;68071;45.062;7.356;2023-03-12T10:38:28;15.30;;;9.77;;
49998;SDS011;68071;45.062;7.356;2023-03-12T10:44:36;14.75;;;9.30;;
49998;SDS011;68071;45.062;7.356;2023-03-12T10:47:40;16.08;;;9.32;;
49998;SDS011;68071;45.062;7.356;2023-03-12T10:51:03;12.60;;;9.18;;
49998;SDS011;68071;45.062;7.356;2023-03-12T10:54:20;10.43;;;8.82;;
49998;SDS011;68071;45.062;7.356;2023-03-12T10:57:37;11.93;;;8.68;;
49998;SDS011;68071;45.062;7.356;2023-03-12T11:00:52;14.57;;;9.20;;
49998;SDS011;68071;45.062;7.356;2023-03-12T11:04:08;13.85;;;9.55;;
49998;SDS011;68071;45.062;7.356;2023-03-12T11:07:30;14.82;;;9.02;;
49998;SDS011;68071;45.062;7.356;2023-03-12T11:10:43;14.35;;;8.80;;
49998;SDS011;68071;45.062;7.356;2023-03-12T11:13:52;12.27;;;8.30;;
49998;SDS011;68071;45.062;7.356;2023-03-12T11:17:28;14.48;;;8.80;;
49998;SDS011;68071;45.062;7.356;2023-03-12T11:20:32;13.23;;;9.15;;
49998;SDS011;68071;45.062;7.356;2023-03-12T11:23:37;12.45;;;7.85;;
49998;SDS011;68071;45.062;7.356;2023-03-12T11:29:53;10.73;;;8.68;;
49998;SDS011;68071;45.062;7.356;2023-03-12T11:32:57;12.50;;;8.18;;
49998;SDS011;68071;45.062;7.356;2023-03-12T11:39:57;15.20;;;9.00;;
49998;SDS011;68071;45.062;7.356;2023-03-12T11:47:10;15.23;;;9.27;;
49998;SDS011;68071;45.062;7.356;2023-03-12T12:03:59;15.30;;;9.88;;
49998;SDS011;68071;45.062;7.356;2023-03-12T12:07:18;12.55;;;8.57;;
49998;SDS011;68071;45.062;7.356;2023-03-12T12:17:19;13.40;;;8.25;;
49998;SDS011;68071;45.062;7.356;2023-03-12T12:27:56;11.50;;;7.90;;
49998;SDS011;68071;45.062;7.356;2023-03-12T12:37:44;12.45;;;8.70;;
49998;SDS011;68071;45.062;7.356;2023-03-12T12:40:54;11.65;;;8.20;;
49998;SDS011;68071;45.062;7.356;2023-03-12T12:44:11;11.70;;;8.48;;
49998;SDS011;68071;45.062;7.356;2023-03-12T12:50:45;11.80;;;8.52;;
49998;SDS011;68071;45.062;7.356;2023-03-12T12:57:06;11.70;;;8.48;;
49998;SDS011;68071;45.062;7.356;2023-03-12T13:00:22;10.55;;;8.07;;
49998;SDS011;68071;45.062;7.356;2023-03-12T13:03:33;10.80;;;7.80;;
49998;SDS011;68071;45.062;7.356;2023-03-12T13:13:38;10.65;;;8.50;;
49998;SDS011;68071;45.062;7.356;2023-03-12T13:16:42;9.32;;;8.15;;
49998;SDS011;68071;45.062;7.356;2023-03-12T13:19:49;14.63;;;9.57;;
49998;SDS011;68071;45.062;7.356;2023-03-12T13:33:43;12.48;;;7.95;;
49998;SDS011;68071;45.062;7.356;2023-03-12T13:36:50;12.20;;;8.77;;
49998;SDS011;68071;45.062;7.356;2023-03-12T13:39:58;12.70;;;9.07;;
49998;SDS011;68071;45.062;7.356;2023-03-12T13:46:41;15.38;;;9.63;;
49998;SDS011;68071;45.062;7.356;2023-03-12T13:56:11;14.75;;;9.48;;
49998;SDS011;68071;45.062;7.356;2023-03-12T13:59:17;13.43;;;10.35;;
49998;SDS011;68071;45.062;7.356;2023-03-12T14:02:26;13.98;;;10.02;;
49998;SDS011;68071;45.062;7.356;2023-03-12T14:05:42;15.77;;;10.10;;
49998;SDS011;68071;45.062;7.356;2023-03-12T14:12:13;13.20;;;10.10;;
49998;SDS011;68071;45.062;7.356;2023-03-12T14:18:59;16.67;;;10.98;;
49998;SDS011;68071;45.062;7.356;2023-03-12T14:22:06;14.07;;;9.93;;
49998;SDS011;68071;45.062;7.356;2023-03-12T14:28:28;14.90;;;10.23;;
49998;SDS011;68071;45.062;7.356;2023-03-12T14:31:35;13.65;;;9.43;;
49998;SDS011;68071;45.062;7.356;2023-03-12T14:34:41;13.60;;;9.07;;
49998;SDS011;68071;45.062;7.356;2023-03-12T14:37:54;14.55;;;9.52;;
49998;SDS011;68071;45.062;7.356;2023-03-12T14:41:21;12.27;;;9.98;;
49998;SDS011;68071;45.062;7.356;2023-03-12T14:44:27;14.27;;;10.02;;
49998;SDS011;68071;45.062;7.356;2023-03-12T14:47:39;14.50;;;10.20;;
49998;SDS011;68071;45.062;7.356;2023-03-12T14:50:45;12.95;;;10.10;;
49998;SDS011;68071;45.062;7.356;2023-03-12T14:53:51;11.75;;;9.05;;
49998;SDS011;68071;45.062;7.356;2023-03-12T14:56:56;14.45;;;11.00;;
49998;SDS011;68071;45.062;7.356;2023-03-12T15:00:01;16.55;;;11.25;;
49998;SDS011;68071;45.062;7.356;2023-03-12T15:03:05;15.15;;;9.48;;
49998;SDS011;68071;45.062;7.356;2023-03-12T15:06:20;12.30;;;9.88;;
49998;SDS011;68071;45.062;7.356;2023-03-12T15:09:34;14.02;;;10.38;;
49998;SDS011;68071;45.062;7.356;2023-03-12T15:12:39;13.65;;;9.60;;
49998;SDS011;68071;45.062;7.356;2023-03-12T15:15:48;13.50;;;9.35;;
49998;SDS011;68071;45.062;7.356;2023-03-12T15:18:55;14.73;;;10.30;;
49998;SDS011;68071;45.062;7.356;2023-03-12T15:22:00;13.05;;;10.50;;
49998;SDS011;68071;45.062;7.356;2023-03-12T15:28:32;15.30;;;10.38;;
49998;SDS011;68071;45.062;7.356;2023-03-12T15:31:43;12.60;;;9.90;;
49998;SDS011;68071;45.062;7.356;2023-03-12T15:34:52;15.10;;;10.07;;
49998;SDS011;68071;45.062;7.356;2023-03-12T15:37:57;11.90;;;9.35;;
49998;SDS011;68071;45.062;7.356;2023-03-12T15:41:05;14.38;;;11.07;;
49998;SDS011;68071;45.062;7.356;2023-03-12T15:44:16;13.00;;;9.35;;
49998;SDS011;68071;45.062;7.356;2023-03-12T15:47:32;12.15;;;10.43;;
49998;SDS011;68071;45.062;7.356;2023-03-12T15:50:42;16.25;;;9.82;;
49998;SDS011;68071;45.062;7.356;2023-03-12T15:57:14;12.48;;;9.68;;
49998;SDS011;68071;45.062;7.356;2023-03-12T16:03:34;11.73;;;8.95;;
49998;SDS011;68071;45.062;7.356;2023-03-12T16:06:38;10.63;;;9.02;;
49998;SDS011;68071;45.062;7.356;2023-03-12T16:09:45;12.85;;;9.18;;
49998;SDS011;68071;45.062;7.356;2023-03-12T16:12:49;12.55;;;8.80;;
49998;SDS011;68071;45.062;7.356;2023-03-12T16:15:58;13.55;;;8.95;;
49998;SDS011;68071;45.062;7.356;2023-03-12T16:19:04;14.02;;;9.20;;
49998;SDS011;68071;45.062;7.356;2023-03-12T16:22:15;10.20;;;8.30;;
49998;SDS011;68071;45.062;7.356;2023-03-12T16:25:20;20.52;;;10.23;;
49998;SDS011;68071;45.062;7.356;2023-03-12T16:28:25;12.25;;;8.93;;
49998;SDS011;68071;45.062;7.356;2023-03-12T16:31:29;13.68;;;8.80;;
49998;SDS011;68071;45.062;7.356;2023-03-12T16:34:33;39.78;;;19.83;;
49998;SDS011;68071;45.062;7.356;2023-03-12T16:37:37;12.02;;;8.63;;
49998;SDS011;68071;45.062;7.356;2023-03-12T16:40:43;12.57;;;8.85;;
49998;SDS011;68071;45.062;7.356;2023-03-12T16:43:50;15.55;;;8.70;;
49998;SDS011;68071;45.062;7.356;2023-03-12T16:46:56;13.95;;;8.95;;
49998;SDS011;68071;45.062;7.356;2023-03-12T16:50:01;12.95;;;9.13;;
49998;SDS011;68071;45.062;7.356;2023-03-12T16:53:05;9.70;;;8.45;;
49998;SDS011;68071;45.062;7.356;2023-03-12T16:56:13;12.90;;;8.75;;
49998;SDS011;68071;45.062;7.356;2023-03-12T16:59:24;14.00;;;9.60;;
49998;SDS011;68071;45.062;7.356;2023-03-12T17:02:30;14.70;;;9.07;;
49998;SDS011;68071;45.062;7.356;2023-03-12T17:05:35;15.02;;;11.60;;
49998;SDS011;68071;45.062;7.356;2023-03-12T17:08:38;15.35;;;11.90;;
49998;SDS011;68071;45.062;7.356;2023-03-12T17:11:42;14.05;;;9.98;;
49998;SDS011;68071;45.062;7.356;2023-03-12T17:14:47;14.75;;;9.43;;
49998;SDS011;68071;45.062;7.356;2023-03-12T17:17:52;24.35;;;14.82;;
49998;SDS011;68071;45.062;7.356;2023-03-12T17:20:58;11.63;;;9.20;;
49998;SDS011;68071;45.062;7.356;2023-03-12T17:24:02;11.13;;;8.32;;
49998;SDS011;68071;45.062;7.356;2023-03-12T17:27:06;15.05;;;8.63;;
49998;SDS011;68071;45.062;7.356;2023-03-12T17:30:10;12.95;;;9.27;;
49998;SDS011;68071;45.062;7.356;2023-03-12T17:33:16;16.13;;;12.32;;
49998;SDS011;68071;45.062;7.356;2023-03-12T17:36:21;18.10;;;12.18;;
49998;SDS011;68071;45.062;7.356;2023-03-12T17:39:26;16.27;;;11.18;;
49998;SDS011;68071;45.062;7.356;2023-03-12T17:42:29;25.35;;;19.92;;
49998;SDS011;68071;45.062;7.356;2023-03-12T17:45:34;20.17;;;15.70;;
49998;SDS011;68071;45.062;7.356;2023-03-12T17:48:42;16.58;;;11.57;;
49998;SDS011;68071;45.062;7.356;2023-03-12T17:51:46;15.40;;;11.95;;
49998;SDS011;68071;45.062;7.356;2023-03-12T17:54:50;14.80;;;11.82;;
49998;SDS011;68071;45.062;7.356;2023-03-12T17:57:54;17.63;;;12.40;;
49998;SDS011;68071;45.062;7.356;2023-03-12T18:00:58;13.65;;;10.52;;
49998;SDS011;68071;45.062;7.356;2023-03-12T18:04:03;20.10;;;12.93;;
49998;SDS011;68071;45.062;7.356;2023-03-12T18:07:07;22.88;;;15.07;;
49998;SDS011;68071;45.062;7.356;2023-03-12T18:10:12;18.85;;;14.05;;
49998;SDS011;68071;45.062;7.356;2023-03-12T18:13:16;19.30;;;14.07;;
49998;SDS011;68071;45.062;7.356;2023-03-12T18:16:20;21.00;;;13.25;;
49998;SDS011;68071;45.062;7.356;2023-03-12T18:19:24;19.42;;;13.82;;
49998;SDS011;68071;45.062;7.356;2023-03-12T18:22:30;20.45;;;14.05;;
49998;SDS011;68071;45.062;7.356;2023-03-12T18:25:33;21.75;;;13.70;;
49998;SDS011;68071;45.062;7.356;2023-03-12T18:28:40;18.50;;;14.45;;
49998;SDS011;68071;45.062;7.356;2023-03-12T18:31:44;17.63;;;11.05;;
49998;SDS011;68071;45.062;7.356;2023-03-12T18:34:48;18.55;;;12.32;;
49998;SDS011;68071;45.062;7.356;2023-03-12T18:37:52;18.65;;;13.45;;
49998;SDS011;68071;45.062;7.356;2023-03-12T18:41:15;17.70;;;13.65;;
49998;SDS011;68071;45.062;7.356;2023-03-12T18:44:20;18.77;;;14.30;;
49998;SDS011;68071;45.062;7.356;2023-03-12T18:47:24;18.05;;;13.93;;
49998;SDS011;68071;45.062;7.356;2023-03-12T18:50:28;17.50;;;13.77;;
49998;SDS011;68071;45.062;7.356;2023-03-12T18:53:33;19.27;;;14.68;;
49998;SDS011;68071;45.062;7.356;2023-03-12T18:56:37;19.80;;;14.55;;
49998;SDS011;68071;45.062;7.356;2023-03-12T18:59:43;18.50;;;12.70;;
49998;SDS011;68071;45.062;7.356;2023-03-12T19:02:48;19.73;;;14.02;;
49998;SDS011;68071;45.062;7.356;2023-03-12T19:06:02;17.88;;;13.27;;
49998;SDS011;68071;45.062;7.356;2023-03-12T19:09:08;18.00;;;12.80;;
49998;SDS011;68071;45.062;7.356;2023-03-12T19:12:13;17.27;;;11.07;;
49998;SDS011;68071;45.062;7.356;2023-03-12T19:15:17;18.25;;;13.52;;
49998;SDS011;68071;45.062;7.356;2023-03-12T19:18:22;21.02;;;14.52;;
49998;SDS011;68071;45.062;7.356;2023-03-12T19:21:27;24.38;;;17.40;;
49998;SDS011;68071;45.062;7.356;2023-03-12T19:24:31;15.50;;;11.98;;
49998;SDS011;68071;45.062;7.356;2023-03-12T19:27:35;12.23;;;9.63;;
49998;SDS011;68071;45.062;7.356;2023-03-12T19:30:39;15.00;;;11.20;;
49998;SDS011;68071;45.062;7.356;2023-03-12T19:33:43;10.82;;;8.32;;
49998;SDS011;68071;45.062;7.356;2023-03-12T19:36:47;13.00;;;8.77;;
49998;SDS011;68071;45.062;7.356;2023-03-12T19:39:51;13.13;;;11.07;;
49998;SDS011;68071;45.062;7.356;2023-03-12T19:42:56;13.60;;;11.40;;
49998;SDS011;68071;45.062;7.356;2023-03-12T19:46:00;18.48;;;12.00;;
49998;SDS011;68071;45.062;7.356;2023-03-12T19:49:06;16.80;;;11.95;;
49998;SDS011;68071;45.062;7.356;2023-03-12T19:52:10;12.05;;;8.80;;
49998;SDS011;68071;45.062;7.356;2023-03-12T19:55:14;15.13;;;9.38;;
49998;SDS011;68071;45.062;7.356;2023-03-12T19:58:19;10.27;;;8.48;;
49998;SDS011;68071;45.062;7.356;2023-03-12T20:01:24;15.53;;;9.63;;
49998;SDS011;68071;45.062;7.356;2023-03-12T20:04:28;11.77;;;10.15;;
49998;SDS011;68071;45.062;7.356;2023-03-12T20:07:33;19.42;;;13.38;;
49998;SDS011;68071;45.062;7.356;2023-03-12T20:10:38;16.25;;;10.32;;
49998;SDS011;68071;45.062;7.356;2023-03-12T20:13:42;14.73;;;10.38;;
49998;SDS011;68071;45.062;7.356;2023-03-12T20:16:48;17.45;;;11.57;;
49998;SDS011;68071;45.062;7.356;2023-03-12T20:19:52;13.07;;;9.80;;
49998;SDS011;68071;45.062;7.356;2023-03-12T20:26:02;15.45;;;12.10;;
49998;SDS011;68071;45.062;7.356;2023-03-12T20:29:07;14.00;;;12.02;;
49998;SDS011;68071;45.062;7.356;2023-03-12T20:32:11;13.57;;;10.75;;
49998;SDS011;68071;45.062;7.356;2023-03-12T20:35:16;11.60;;;8.98;;
49998;SDS011;68071;45.062;7.356;2023-03-12T20:38:20;21.27;;;13.35;;
49998;SDS011;68071;45.062;7.356;2023-03-12T20:41:24;14.82;;;12.15;;
49998;SDS011;68071;45.062;7.356;2023-03-12T20:44:29;15.15;;;11.27;;